Pagrindinis puslapis
METAR-TAF:

METAR-TAF

Oro uostai :

Kernsas, Australija

platuma: 16-53S, ilguma: 145-45E, Aukštis: 3 m

Dabartinis oras

Ataskaita buvo paskelbta 24 minutes, ne 03:30 UTC
Vėjas 5 kt iš Rytų/Pietryčių
Temperatūra 26°C
Drėgmė 51%
Slėgis 1017 hPa
Matomumas 10 km arba daugiau

METAR: YBCS 270330Z AUTO 11005KT 9999 // NCD 26/15 Q1017 NOSIG

Laikas: 13:54 (03:54 UTC)

Prognozė

Ataskaita buvo paskelbta 4 valandos ir 42 minutes, ne 23:12 UTC
Prognozė galioja nuo 27 metu 00 UTC su 28 metu 00 UTC
Vėjas 10 kt iš Rytų/Pietryčių
Matomumas 10 km arba daugiau
Mažai debesys ne aukštis 4500 ft
Nuo 27 metu 1100 UTC
Vėjas 6 kt iš Pietų
Matomumas 10 km arba daugiau
Mažai debesys ne aukštis 3000 ft

TAF: YBCS 262312Z 2700/2800 12010KT 9999 FEW045 FM271100 19006KT 9999 FEW030

Orai ataskaitas ir orų prognozės (METAR, TAF).

turimą stotys yra geltonos ir raudonos taškus žemėlapyje.

Perkelti pele per norėdami pamatyti stoties vardą.

Tada spustelėkite, norėdami matyti oro stebėjimo ir prognozės.

Norėdami pakeisti žemėlapį: spustelėkite ant žalios mygtukų su juodo kryžiaus žemyn,; žalią mygtuką su brūkšneliu, jei norite nutolinti; arba žalių rodyklių gretimoms žemėlapius.


METAR-TAF: